createdAt,value
2023-05-04T00:00:35.617Z,100373.44
2023-05-04T00:03:02.245Z,100371.41
2023-05-04T00:05:28.917Z,100376.00
2023-05-04T00:07:55.471Z,100377.00
2023-05-04T00:10:22.146Z,100365.25
2023-05-04T00:12:48.769Z,100359.19
2023-05-04T00:15:15.594Z,100363.81
2023-05-04T00:17:42.178Z,100365.97
2023-05-04T00:20:09.267Z,100364.22
2023-05-04T00:22:44.958Z,100365.44
2023-05-04T00:25:33.343Z,100359.19
2023-05-04T00:27:59.929Z,100362.97
2023-05-04T00:30:26.522Z,100359.47
2023-05-04T00:32:53.118Z,100358.44
2023-05-04T00:35:19.678Z,100357.69
2023-05-04T00:37:46.493Z,100359.84
2023-05-04T00:40:13.266Z,100348.16
2023-05-04T00:42:39.795Z,100360.03
2023-05-04T00:45:06.811Z,100359.37
2023-05-04T00:47:33.745Z,100358.75
2023-05-04T00:50:00.549Z,100360.88
2023-05-04T00:52:27.866Z,100356.38
2023-05-04T00:54:54.737Z,100361.09
2023-05-04T00:57:21.740Z,100366.53
2023-05-04T00:59:48.307Z,100370.06
2023-05-04T01:02:27.958Z,100363.84
2023-05-04T01:05:20.156Z,100355.94
2023-05-04T01:25:44.953Z,100351.66
2023-05-04T01:28:35.837Z,100363.50
2023-05-04T01:31:03.541Z,100360.41
2023-05-04T01:33:31.699Z,100354.06
2023-05-04T01:41:30.172Z,100355.50
2023-05-04T01:43:57.826Z,100363.78
2023-05-04T01:46:24.414Z,100358.25
2023-05-04T01:48:51.039Z,100359.91
2023-05-04T01:51:17.626Z,100356.50
2023-05-04T01:53:44.188Z,100351.31
2023-05-04T01:56:10.969Z,100355.87
2023-05-04T01:58:37.548Z,100357.03
2023-05-04T02:01:05.665Z,100351.19
2023-05-04T02:03:32.407Z,100359.25
2023-05-04T02:05:59.005Z,100356.22
2023-05-04T02:08:26.387Z,100345.19
2023-05-04T02:10:59.070Z,100347.94
2023-05-04T02:13:53.552Z,100343.25
2023-05-04T02:16:20.119Z,100355.06
2023-05-04T02:18:46.828Z,100351.12
2023-05-04T02:21:13.738Z,100355.69
2023-05-04T02:23:40.309Z,100360.34
2023-05-04T02:26:06.975Z,100353.16
2023-05-04T02:28:33.562Z,100350.53
2023-05-04T02:31:00.124Z,100350.00
2023-05-04T02:33:26.709Z,100345.22
2023-05-04T02:35:53.220Z,100343.19
2023-05-04T02:38:19.802Z,100336.66
2023-05-04T02:40:55.774Z,100337.88
2023-05-04T02:43:37.683Z,100337.16
2023-05-04T02:46:04.618Z,100342.34
2023-05-04T02:48:31.194Z,100341.97
2023-05-04T02:50:57.921Z,100343.41
2023-05-04T02:53:24.460Z,100346.66
2023-05-04T02:55:51.056Z,100342.69
2023-05-04T02:58:17.600Z,100346.03
2023-05-04T03:00:55.640Z,100339.94
2023-05-04T03:03:22.236Z,100351.44
2023-05-04T03:05:48.800Z,100349.22
2023-05-04T03:08:15.802Z,100345.13
2023-05-04T03:10:54.698Z,100343.06
2023-05-04T03:13:33.228Z,100343.25
2023-05-04T03:15:59.897Z,100355.47
2023-05-04T03:18:26.520Z,100355.87
2023-05-04T03:20:53.163Z,100353.22
2023-05-04T03:23:19.744Z,100350.75
2023-05-04T03:25:46.264Z,100354.72
2023-05-04T03:28:12.960Z,100359.72
2023-05-04T03:30:39.547Z,100359.59
2023-05-04T03:33:06.215Z,100357.81
2023-05-04T03:35:32.905Z,100355.97
2023-05-04T03:37:59.936Z,100352.53
2023-05-04T03:40:27.102Z,100355.00
2023-05-04T03:43:08.959Z,100346.00
2023-05-04T03:48:10.985Z,100354.84
2023-05-04T03:50:37.542Z,100367.31
2023-05-04T03:53:05.759Z,100365.84
2023-05-04T03:55:32.347Z,100362.28
2023-05-04T03:57:58.953Z,100367.50
2023-05-04T04:00:25.510Z,100369.63
2023-05-04T04:02:52.147Z,100373.50
2023-05-04T04:05:18.810Z,100368.81
2023-05-04T04:07:45.589Z,100375.25
2023-05-04T04:10:32.126Z,100376.47
2023-05-04T04:13:04.167Z,100373.09
2023-05-04T04:41:12.323Z,100378.06
2023-05-04T04:43:39.132Z,100386.03
2023-05-04T04:46:49.444Z,100394.78
2023-05-04T04:49:17.869Z,100391.12
2023-05-04T04:51:44.669Z,100386.63
2023-05-04T04:54:11.532Z,100396.94
2023-05-04T04:56:40.617Z,100396.81
2023-05-04T04:59:07.412Z,100395.72
2023-05-04T05:01:34.092Z,100407.66
2023-05-04T05:04:00.775Z,100405.72
2023-05-04T05:06:27.287Z,100400.41
2023-05-04T05:08:53.865Z,100407.06
2023-05-04T05:11:20.992Z,100399.28
2023-05-04T05:13:47.510Z,100405.81
2023-05-04T05:16:14.186Z,100405.19
2023-05-04T05:18:41.122Z,100404.19
2023-05-04T05:21:07.775Z,100400.09
2023-05-04T05:23:35.638Z,100400.59
2023-05-04T05:26:03.376Z,100402.84
2023-05-04T05:28:30.416Z,100413.06
2023-05-04T05:30:57.036Z,100405.81
2023-05-04T05:33:23.900Z,100400.78
2023-05-04T05:35:50.475Z,100400.00
2023-05-04T05:38:18.729Z,100405.41
2023-05-04T05:40:45.310Z,100415.09
2023-05-04T05:43:11.823Z,100414.91
2023-05-04T05:45:38.366Z,100413.56
2023-05-04T05:48:05.700Z,100420.28
2023-05-04T05:50:32.341Z,100417.75
2023-05-04T05:52:58.879Z,100412.09
2023-05-04T05:55:25.437Z,100417.34
2023-05-04T05:57:52.173Z,100414.19
2023-05-04T06:00:18.932Z,100427.53
2023-05-04T06:02:45.591Z,100422.25
2023-05-04T06:05:18.266Z,100421.91
2023-05-04T06:07:44.808Z,100432.22
2023-05-04T06:10:11.365Z,100424.22
2023-05-04T06:12:37.935Z,100427.59
2023-05-04T06:15:14.482Z,100430.91
2023-05-04T06:20:45.260Z,100427.41
2023-05-04T06:23:11.985Z,100424.78
2023-05-04T06:25:38.579Z,100413.75
2023-05-04T06:28:05.482Z,100422.06
2023-05-04T06:30:32.087Z,100418.88
2023-05-04T06:32:58.693Z,100420.72
2023-05-04T06:35:25.791Z,100424.88
2023-05-04T06:37:52.404Z,100428.50
2023-05-04T06:40:19.029Z,100429.50
2023-05-04T06:42:45.934Z,100435.53
2023-05-04T06:45:12.708Z,100429.69
2023-05-04T06:47:39.322Z,100434.44
2023-05-04T06:50:10.059Z,100442.19
2023-05-04T06:52:41.110Z,100437.78
2023-05-04T06:55:16.943Z,100436.56
2023-05-04T06:57:43.556Z,100436.41
2023-05-04T07:00:10.718Z,100441.06
2023-05-04T07:02:37.329Z,100440.53
2023-05-04T07:05:04.114Z,100437.81
2023-05-04T07:07:30.773Z,100441.13
2023-05-04T07:09:57.519Z,100440.25
2023-05-04T07:12:24.123Z,100434.63
2023-05-04T07:14:50.713Z,100440.16
2023-05-04T07:17:17.305Z,100437.37
2023-05-04T07:19:43.885Z,100438.03
2023-05-04T07:22:10.499Z,100446.47
2023-05-04T07:24:37.152Z,100439.66
2023-05-04T07:27:03.807Z,100445.00
2023-05-04T07:29:30.670Z,100443.22
2023-05-04T07:31:57.279Z,100452.19
2023-05-04T07:34:33.889Z,100434.56
2023-05-04T07:37:05.433Z,100450.37
2023-05-04T07:39:36.266Z,100445.69
2023-05-04T07:42:04.147Z,100439.00
2023-05-04T07:44:31.817Z,100448.75
2023-05-04T07:46:59.131Z,100448.22
2023-05-04T07:49:26.197Z,100449.88
2023-05-04T07:51:52.970Z,100448.97
2023-05-04T07:54:21.330Z,100436.53
2023-05-04T07:56:49.108Z,100444.72
2023-05-04T07:59:18.396Z,100449.12
2023-05-04T08:01:45.176Z,100451.72
2023-05-04T08:04:33.481Z,100447.28
2023-05-04T08:07:00.124Z,100448.13
2023-05-04T08:09:26.739Z,100448.06
2023-05-04T08:11:53.664Z,100445.31
2023-05-04T08:20:53.063Z,100446.00
2023-05-04T08:23:19.641Z,100446.34
2023-05-04T08:25:46.192Z,100452.81
2023-05-04T08:28:12.753Z,100459.31
2023-05-04T08:30:39.314Z,100451.38
2023-05-04T08:33:17.592Z,100454.50
2023-05-04T08:35:44.135Z,100456.31
2023-05-04T08:38:10.894Z,100457.41
2023-05-04T08:40:41.548Z,100460.59
2023-05-04T08:43:17.229Z,100451.78
2023-05-04T08:46:12.464Z,100455.09
2023-05-04T08:51:14.832Z,100457.53
2023-05-04T08:53:46.063Z,100445.56
2023-05-04T08:56:14.027Z,100446.31
2023-05-04T08:58:52.054Z,100448.78
2023-05-04T09:01:20.230Z,100455.84
2023-05-04T09:03:47.750Z,100447.84
2023-05-04T09:06:15.293Z,100446.75
2023-05-04T09:08:42.441Z,100448.75
2023-05-04T09:11:09.373Z,100444.28
2023-05-04T09:13:36.613Z,100437.31
2023-05-04T09:16:04.239Z,100444.44
2023-05-04T09:18:41.427Z,100446.06
2023-05-04T09:21:08.193Z,100453.56
2023-05-04T09:23:55.311Z,100452.81
2023-05-04T09:26:32.293Z,100449.28
2023-05-04T09:29:15.521Z,100446.25
2023-05-04T09:31:47.291Z,100450.09
2023-05-04T09:34:14.997Z,100441.72
2023-05-04T09:36:44.903Z,100432.81
2023-05-04T09:39:15.973Z,100436.78
2023-05-04T09:41:42.757Z,100432.00
2023-05-04T09:44:23.139Z,100431.34
2023-05-04T09:46:55.457Z,100436.28
2023-05-04T09:49:36.135Z,100428.56
2023-05-04T09:52:05.212Z,100425.16
2023-05-04T09:54:35.388Z,100424.75
2023-05-04T09:57:15.542Z,100427.31
2023-05-04T09:59:43.158Z,100422.94
2023-05-04T10:02:22.115Z,100416.91
2023-05-04T10:05:10.546Z,100416.47
2023-05-04T10:07:49.861Z,100406.28
2023-05-04T10:10:16.610Z,100414.97
2023-05-04T10:12:44.876Z,100401.34
2023-05-04T10:15:12.290Z,100394.88
2023-05-04T10:17:51.290Z,100395.56
2023-05-04T10:20:49.002Z,100401.06
2023-05-04T10:23:42.269Z,100397.28
2023-05-04T10:26:24.163Z,100402.84
2023-05-04T10:29:00.917Z,100393.94
2023-05-04T10:31:43.456Z,100391.16
2023-05-04T10:34:11.200Z,100384.97
2023-05-04T10:36:44.109Z,100381.69
2023-05-04T10:39:33.173Z,100379.13
2023-05-04T10:44:57.053Z,100381.50
2023-05-04T10:47:34.332Z,100375.87
2023-05-04T10:50:05.598Z,100376.88
2023-05-04T10:52:33.250Z,100387.91
2023-05-04T10:55:01.883Z,100378.22
2023-05-04T10:57:29.373Z,100380.72
2023-05-04T10:59:57.844Z,100365.16
2023-05-04T11:02:26.074Z,100374.62
2023-05-04T11:05:09.489Z,100365.97
2023-05-04T11:07:40.085Z,100365.28
2023-05-04T11:10:09.788Z,100362.44
2023-05-04T11:12:38.164Z,100356.34
2023-05-04T11:15:10.944Z,100355.25
2023-05-04T11:17:47.509Z,100348.78
2023-05-04T11:20:27.293Z,100349.13
2023-05-04T11:22:54.921Z,100345.16
2023-05-04T11:25:28.777Z,100340.34
2023-05-04T11:27:56.121Z,100337.91
2023-05-04T11:30:30.705Z,100340.19
2023-05-04T11:32:59.302Z,100338.00
2023-05-04T11:35:26.342Z,100335.69
2023-05-04T11:37:53.688Z,100339.81
2023-05-04T11:40:23.651Z,100330.31
2023-05-04T11:43:04.568Z,100331.00
2023-05-04T11:45:44.380Z,100330.84
2023-05-04T11:48:16.637Z,100329.56
2023-05-04T11:50:47.799Z,100325.44
2023-05-04T11:53:14.384Z,100326.78
2023-05-04T11:55:42.031Z,100327.53
2023-05-04T11:58:10.631Z,100321.66
2023-05-04T12:00:45.383Z,100325.25
2023-05-04T12:03:14.394Z,100325.75
2023-05-04T12:05:48.523Z,100316.28
2023-05-04T12:08:35.232Z,100321.25
2023-05-04T12:11:20.402Z,100318.59
2023-05-04T12:13:49.237Z,100324.38
2023-05-04T12:16:17.006Z,100318.28
2023-05-04T12:18:45.417Z,100320.00
2023-05-04T12:21:17.707Z,100312.72
2023-05-04T12:23:45.629Z,100312.59
2023-05-04T12:26:13.132Z,100309.72
2023-05-04T12:28:41.983Z,100315.31
2023-05-04T12:31:14.881Z,100310.50
2023-05-04T12:33:41.861Z,100304.94
2023-05-04T12:36:08.735Z,100312.19
2023-05-04T12:38:35.250Z,100305.63
2023-05-04T12:41:06.171Z,100305.28
2023-05-04T12:43:33.680Z,100307.94
2023-05-04T12:46:00.429Z,100308.69
2023-05-04T12:48:29.027Z,100305.56
2023-05-04T12:50:56.097Z,100291.72
2023-05-04T12:53:25.680Z,100304.41
2023-05-04T12:55:52.815Z,100296.41
2023-05-04T12:58:19.480Z,100299.38
2023-05-04T13:00:46.481Z,100295.78
2023-05-04T13:03:13.769Z,100291.09
2023-05-04T13:05:40.441Z,100286.94
2023-05-04T13:08:07.112Z,100286.16
2023-05-04T13:10:33.663Z,100287.03
2023-05-04T13:13:02.817Z,100280.66
2023-05-04T13:15:29.753Z,100289.09
2023-05-04T13:17:56.425Z,100291.34
2023-05-04T13:20:22.972Z,100292.97
2023-05-04T13:22:50.759Z,100291.28
2023-05-04T13:25:17.437Z,100294.59
2023-05-04T13:27:44.139Z,100296.81
2023-05-04T13:30:11.972Z,100288.22
2023-05-04T13:32:38.758Z,100288.31
2023-05-04T13:35:06.159Z,100273.72
2023-05-04T13:37:33.918Z,100272.88
2023-05-04T13:40:01.672Z,100269.31
2023-05-04T13:42:28.425Z,100260.56
2023-05-04T13:44:55.087Z,100269.47
2023-05-04T13:47:21.713Z,100262.03
2023-05-04T13:49:49.174Z,100258.28
2023-05-04T13:52:16.065Z,100249.94
2023-05-04T13:54:42.756Z,100257.75
2023-05-04T13:57:09.307Z,100262.66
2023-05-04T13:59:35.861Z,100256.41
2023-05-04T14:02:02.663Z,100256.56
2023-05-04T14:04:30.248Z,100254.47
2023-05-04T14:06:57.689Z,100257.94
2023-05-04T14:09:25.937Z,100248.31
2023-05-04T14:11:52.441Z,100248.31
2023-05-04T14:14:19.436Z,100246.94
2023-05-04T14:16:46.876Z,100239.19
2023-05-04T14:19:13.478Z,100244.63
2023-05-04T14:21:40.003Z,100241.53
2023-05-04T14:24:06.573Z,100244.66
2023-05-04T14:26:34.514Z,100236.59
2023-05-04T14:29:01.156Z,100235.66
2023-05-04T14:31:27.978Z,100237.84
2023-05-04T14:33:56.744Z,100243.66
2023-05-04T14:36:23.975Z,100234.25
2023-05-04T14:38:50.523Z,100230.81
2023-05-04T14:41:18.181Z,100227.47
2023-05-04T14:43:47.818Z,100228.84
2023-05-04T14:46:14.402Z,100230.94
2023-05-04T14:48:41.261Z,100223.75
2023-05-04T14:51:08.489Z,100230.81
2023-05-04T14:53:37.043Z,100231.50
2023-05-04T14:56:05.587Z,100219.22
2023-05-04T14:58:32.148Z,100218.53
2023-05-04T15:00:58.788Z,100223.97
2023-05-04T15:03:26.036Z,100220.75
2023-05-04T15:05:52.856Z,100230.00
2023-05-04T15:08:19.502Z,100224.09
2023-05-04T15:10:46.302Z,100224.06
2023-05-04T15:13:15.972Z,100226.13
2023-05-04T15:15:42.805Z,100226.59
2023-05-04T15:18:10.427Z,100216.91
2023-05-04T15:20:40.520Z,100221.41
2023-05-04T15:23:13.070Z,100218.66
2023-05-04T15:25:41.073Z,100221.88
2023-05-04T15:28:12.001Z,100222.81
2023-05-04T15:30:42.182Z,100215.59
2023-05-04T15:33:09.101Z,100211.91
2023-05-04T15:35:37.133Z,100213.47
2023-05-04T15:38:04.048Z,100207.75
2023-05-04T15:40:31.447Z,100207.63
2023-05-04T15:42:58.015Z,100210.09
2023-05-04T15:45:24.790Z,100205.78
2023-05-04T15:47:56.394Z,100219.56
2023-05-04T15:50:24.136Z,100215.88
2023-05-04T15:52:50.693Z,100213.22
2023-05-04T15:55:26.010Z,100209.63
2023-05-04T15:57:54.040Z,100208.19
2023-05-04T16:00:21.669Z,100200.44
2023-05-04T16:02:48.588Z,100214.34
2023-05-04T16:05:15.390Z,100203.47
2023-05-04T16:07:42.144Z,100209.09
2023-05-04T16:10:09.841Z,100206.09
2023-05-04T16:12:36.855Z,100197.78
2023-05-04T16:15:03.956Z,100203.56
2023-05-04T16:17:34.991Z,100198.47
2023-05-04T16:20:03.188Z,100206.81
2023-05-04T16:22:30.323Z,100198.81
2023-05-04T16:24:57.323Z,100207.03
2023-05-04T16:27:26.680Z,100195.25
2023-05-04T16:29:53.537Z,100202.16
2023-05-04T16:32:20.619Z,100211.22
2023-05-04T16:34:47.694Z,100199.50
2023-05-04T16:37:14.353Z,100208.44
2023-05-04T16:39:40.976Z,100206.91
2023-05-04T16:42:07.573Z,100219.41
2023-05-04T16:44:34.095Z,100214.66
2023-05-04T16:47:00.807Z,100211.66
2023-05-04T16:49:27.393Z,100222.22
2023-05-04T16:51:55.265Z,100223.25
2023-05-04T16:54:25.092Z,100217.91
2023-05-04T16:56:52.327Z,100228.31
2023-05-04T16:59:18.942Z,100229.66
2023-05-04T17:01:46.195Z,100229.25
2023-05-04T17:04:12.823Z,100234.09
2023-05-04T17:06:39.429Z,100234.63
2023-05-04T17:09:06.047Z,100233.87
2023-05-04T17:11:32.651Z,100230.50
2023-05-04T17:14:01.203Z,100233.50
2023-05-04T17:16:27.903Z,100235.59
2023-05-04T17:18:54.750Z,100243.22
2023-05-04T17:21:21.352Z,100234.00
2023-05-04T17:23:47.875Z,100244.94
2023-05-04T17:26:14.430Z,100235.50
2023-05-04T17:28:40.975Z,100243.22
2023-05-04T17:31:11.462Z,100237.19
2023-05-04T17:33:41.559Z,100241.56
2023-05-04T17:36:11.149Z,100243.56
2023-05-04T17:38:39.160Z,100239.44
2023-05-04T17:41:06.054Z,100244.50
2023-05-04T17:43:33.892Z,100241.84
2023-05-04T17:46:00.549Z,100253.13
2023-05-04T17:48:27.809Z,100253.56
2023-05-04T17:50:54.388Z,100249.97
2023-05-04T17:53:21.003Z,100258.97
2023-05-04T17:55:47.760Z,100256.28
2023-05-04T17:58:14.316Z,100261.59
2023-05-04T18:00:40.933Z,100267.22
2023-05-04T18:03:07.646Z,100263.94
2023-05-04T18:05:34.285Z,100275.69
2023-05-04T18:08:00.899Z,100275.75
2023-05-04T18:10:27.555Z,100275.16
2023-05-04T18:13:00.171Z,100280.91
2023-05-04T18:15:26.959Z,100279.94
2023-05-04T18:17:53.531Z,100287.09
2023-05-04T18:20:20.363Z,100299.31
2023-05-04T18:22:46.957Z,100293.97
2023-05-04T18:25:15.320Z,100294.19
2023-05-04T18:27:41.903Z,100292.91
2023-05-04T18:30:09.536Z,100295.03
2023-05-04T18:32:36.453Z,100296.06
2023-05-04T18:35:03.414Z,100300.09
2023-05-04T18:37:32.979Z,100299.94
2023-05-04T18:39:59.662Z,100309.25
2023-05-04T18:43:03.273Z,100308.59
2023-05-04T18:48:39.020Z,100311.37
2023-05-04T18:51:05.575Z,100322.78
2023-05-04T18:53:32.132Z,100325.09
2023-05-04T18:56:06.204Z,100329.16
2023-05-04T18:58:33.152Z,100338.28
2023-05-04T19:00:59.886Z,100339.88
2023-05-04T19:03:26.804Z,100339.56
2023-05-04T19:05:54.233Z,100340.41
2023-05-04T19:08:21.589Z,100335.50
2023-05-04T19:10:49.612Z,100337.75
2023-05-04T19:13:17.055Z,100339.09
2023-05-04T19:15:43.842Z,100345.28
2023-05-04T19:18:10.663Z,100344.12
2023-05-04T19:20:37.706Z,100348.00
2023-05-04T19:23:04.475Z,100353.03
2023-05-04T19:25:35.039Z,100353.69
2023-05-04T19:28:08.274Z,100354.69
2023-05-04T19:30:39.286Z,100352.37
2023-05-04T19:33:06.877Z,100362.31
2023-05-04T19:35:33.494Z,100363.28
2023-05-04T19:38:01.749Z,100366.00
2023-05-04T19:40:28.548Z,100364.03
2023-05-04T19:42:55.215Z,100371.34
2023-05-04T19:45:21.985Z,100362.69
2023-05-04T19:47:50.300Z,100360.38
2023-05-04T19:50:19.029Z,100365.47
2023-05-04T19:52:45.657Z,100356.97
2023-05-04T19:55:12.628Z,100360.19
2023-05-04T19:57:39.284Z,100362.13
2023-05-04T20:00:06.946Z,100355.97
2023-05-04T20:02:35.030Z,100356.72
2023-05-04T20:05:01.672Z,100355.97
2023-05-04T20:07:28.261Z,100354.03
2023-05-04T20:09:54.953Z,100361.06
2023-05-04T20:12:26.619Z,100357.19
2023-05-04T20:14:53.252Z,100365.87
2023-05-04T20:17:19.813Z,100358.94
2023-05-04T20:19:47.349Z,100367.34
2023-05-04T20:33:14.854Z,100361.94
2023-05-04T20:38:22.666Z,100361.81
2023-05-04T20:40:50.466Z,100361.69
2023-05-04T20:43:18.675Z,100365.16
2023-05-04T20:45:45.347Z,100361.25
2023-05-04T20:48:11.993Z,100364.53
2023-05-04T20:50:40.021Z,100360.03
2023-05-04T20:53:06.705Z,100362.87
2023-05-04T20:55:33.302Z,100371.72
2023-05-04T20:57:59.837Z,100374.91
2023-05-04T21:00:28.476Z,100389.03
2023-05-04T21:02:55.158Z,100386.47
2023-05-04T21:05:21.847Z,100390.03
2023-05-04T21:10:23.820Z,100386.09
2023-05-04T21:12:50.435Z,100388.16
2023-05-04T21:15:17.345Z,100384.81
2023-05-04T21:17:43.952Z,100382.78
2023-05-04T21:20:10.912Z,100385.72
2023-05-04T21:23:40.488Z,100385.09
2023-05-04T21:29:04.023Z,100385.13
2023-05-04T21:47:51.645Z,100395.63
2023-05-04T21:53:36.600Z,100394.97
2023-05-04T21:56:08.466Z,100395.59
2023-05-04T21:58:55.077Z,100395.91
2023-05-04T22:01:21.768Z,100398.50
2023-05-04T22:03:48.414Z,100398.22
2023-05-04T22:06:15.445Z,100402.84
2023-05-04T22:08:42.038Z,100402.72
2023-05-04T22:11:28.354Z,100409.44
2023-05-04T22:13:54.923Z,100404.34
2023-05-04T22:16:21.597Z,100405.53
2023-05-04T22:18:49.514Z,100402.41
2023-05-04T22:22:05.787Z,100396.87
2023-05-04T22:27:29.972Z,100408.34
2023-05-04T22:29:57.445Z,100407.50
2023-05-04T22:32:24.072Z,100409.59
2023-05-04T22:34:50.598Z,100405.12
2023-05-04T22:37:17.141Z,100404.84
2023-05-04T22:39:43.702Z,100402.13
2023-05-04T22:42:10.306Z,100408.84
2023-05-04T22:44:36.884Z,100400.75
2023-05-04T22:47:03.951Z,100400.19
2023-05-04T22:49:30.518Z,100398.00
2023-05-04T22:51:57.054Z,100397.06
2023-05-04T22:57:19.571Z,100392.78
2023-05-04T22:59:46.123Z,100392.47
2023-05-04T23:02:14.498Z,100385.53
2023-05-04T23:04:42.350Z,100393.56
2023-05-04T23:07:09.232Z,100391.09
2023-05-04T23:09:46.346Z,100386.75
2023-05-04T23:12:37.928Z,100386.03
2023-05-04T23:15:06.708Z,100385.09
2023-05-04T23:17:34.293Z,100390.81
2023-05-04T23:20:00.989Z,100387.78
2023-05-04T23:22:27.891Z,100384.81
2023-05-04T23:24:54.418Z,100383.81
2023-05-04T23:27:20.964Z,100384.91
2023-05-04T23:29:47.519Z,100394.97
2023-05-04T23:32:14.041Z,100384.59
2023-05-04T23:34:40.600Z,100377.28
2023-05-04T23:37:07.337Z,100377.75
2023-05-04T23:39:49.474Z,100380.13
2023-05-04T23:42:41.031Z,100379.37
2023-05-04T23:45:16.664Z,100377.75
2023-05-04T23:47:45.384Z,100385.72
2023-05-04T23:50:12.434Z,100377.94
2023-05-04T23:52:39.313Z,100374.06
2023-05-04T23:55:06.655Z,100379.87
2023-05-04T23:57:33.307Z,100372.97
2023-05-04T23:59:59.930Z,100384.16
